Time;durP1;ratioP1;P1;durP2;ratioP2;P2;SDS_P1;SDS_P2;PMS_P1;PMS_P2;Temp;Humidity;BMP_temperature;BMP_pressure;BME280_temperature;BME280_humidity;BME280_pressure;Samples;Min_cycle;Max_cycle;Signal;HPM_P1;HPM_P2
2022/03/26 00:00:53;;;;;;;47.20;17.60;;;;;;;-145.69;62.65;72913.00;5071298;28;20233;-78
2022/03/26 00:03:22;;;;;;;51.43;18.20;;;;;;;-145.69;61.96;72903.03;5072030;28;20225;-78
2022/03/26 00:05:53;;;;;;;51.07;18.37;;;;;;;-145.69;61.50;72853.28;5071861;28;20206;-77
2022/03/26 00:08:22;;;;;;;43.80;17.87;;;;;;;-145.69;61.86;72895.06;5072159;28;20256;-77
2022/03/26 00:10:49;;;;;;;43.70;18.13;;;;;;;-145.69;60.99;72895.06;5072496;28;20202;-77
2022/03/26 00:13:20;;;;;;;47.87;18.83;;;;;;;-145.69;62.93;72914.97;5072331;28;20201;-77
2022/03/26 00:15:47;;;;;;;43.27;17.87;;;;;;;-145.69;63.36;72944.84;5071136;28;20310;-77
2022/03/26 00:18:18;;;;;;;45.13;18.17;;;;;;;-145.69;64.58;72952.78;5072334;28;20321;-78
2022/03/26 00:20:45;;;;;;;44.40;17.23;;;;;;;-145.69;65.01;72968.72;5075755;28;20199;-77
2022/03/26 00:23:11;;;;;;;53.73;18.43;;;;;;;-145.69;65.47;72974.69;5075520;28;20191;-78
2022/03/26 00:25:38;;;;;;;46.53;17.50;;;;;;;-145.69;66.31;72970.72;5075331;28;20229;-78
2022/03/26 00:28:05;;;;;;;51.50;17.87;;;;;;;-145.69;66.58;72990.63;5075875;28;20226;-78
2022/03/26 00:30:32;;;;;;;43.37;16.67;;;;;;;-145.69;69.06;73010.53;5075342;28;20292;-78
2022/03/26 00:33:00;;;;;;;47.20;18.43;;;;;;;-145.69;68.99;73016.50;5075138;28;20542;-78
2022/03/26 00:35:27;;;;;;;51.83;18.90;;;;;;;-145.69;70.00;73032.44;5075735;28;20201;-77
2022/03/26 00:37:56;;;;;;;42.80;17.00;;;;;;;-145.69;71.77;73046.34;5075518;28;20233;-78
2022/03/26 00:40:23;;;;;;;49.73;18.07;;;;;;;-145.69;72.21;73060.28;5075557;28;20289;-78
2022/03/26 00:42:52;;;;;;;48.43;17.80;;;;;;;-145.69;71.20;73060.28;5074816;28;20543;-78
2022/03/26 00:45:19;;;;;;;45.70;18.27;;;;;;;-145.69;68.94;73014.50;5071588;28;20205;-77
2022/03/26 00:47:48;;;;;;;45.80;18.13;;;;;;;-145.69;64.41;72934.88;5074136;28;20198;-77
2022/03/26 00:50:16;;;;;;;44.30;17.17;;;;;;;-145.69;63.62;72928.91;5074071;28;20198;-78
2022/03/26 00:52:48;;;;;;;45.03;18.03;;;;;;;-145.69;63.72;72932.91;5073725;28;20198;-78
2022/03/26 00:55:14;;;;;;;46.07;17.53;;;;;;;-145.69;63.27;72950.81;5074668;28;20278;-77
2022/03/26 00:57:43;;;;;;;42.97;17.73;;;;;;;-145.69;67.23;73010.53;5073774;28;20711;-77
2022/03/26 01:00:12;;;;;;;44.60;18.23;;;;;;;-145.69;70.30;73068.25;5074867;28;20202;-77
2022/03/26 01:02:39;;;;;;;41.40;17.80;;;;;;;-145.69;71.57;73094.13;5074455;28;20238;-77
2022/03/26 01:05:06;;;;;;;44.60;18.53;;;;;;;-145.69;72.70;73143.91;5074992;28;20199;-77
2022/03/26 01:07:34;;;;;;;43.03;17.57;;;;;;;-145.69;75.00;73157.84;5074940;28;20210;-77
2022/03/26 01:10:03;;;;;;;46.07;18.30;;;;;;;-145.69;77.06;73177.75;5073793;28;20206;-78
2022/03/26 01:12:30;;;;;;;46.50;18.40;;;;;;;-145.69;77.25;73215.56;5073985;28;20678;-77
2022/03/26 01:14:57;;;;;;;48.13;18.03;;;;;;;-145.69;78.85;73229.50;5073901;28;20288;-77
2022/03/26 01:17:23;;;;;;;48.43;18.73;;;;;;;-145.69;78.56;73241.44;5073139;28;20228;-77
2022/03/26 01:19:51;;;;;;;47.80;18.97;;;;;;;-145.69;78.92;73249.41;5074676;28;20607;-77
2022/03/26 01:22:20;;;;;;;50.65;20.58;;;;;;;-145.69;80.74;73267.34;5074451;28;20442;-78
2022/03/26 01:24:51;;;;;;;43.87;18.43;;;;;;;-145.69;80.54;73293.22;5074643;28;20199;-77
2022/03/26 01:27:18;;;;;;;46.30;18.43;;;;;;;-145.69;82.03;73297.19;5074639;28;20199;-77
2022/03/26 01:29:45;;;;;;;46.27;17.97;;;;;;;-145.69;84.20;73317.09;5073232;28;20194;-77
2022/03/26 01:32:12;;;;;;;48.20;18.37;;;;;;;-145.69;84.31;73301.19;5073670;28;20199;-77
2022/03/26 01:34:41;;;;;;;49.27;19.23;;;;;;;-145.69;86.39;73321.09;5074568;28;20206;-77
2022/03/26 01:37:07;;;;;;;41.37;18.53;;;;;;;-145.69;85.84;73356.91;5073500;28;20202;-77
2022/03/26 01:39:36;;;;;;;42.93;17.80;;;;;;;-145.69;87.61;73376.81;5073500;28;20226;-77
2022/03/26 01:42:06;;;;;;;47.33;18.67;;;;;;;-145.69;88.12;73376.81;5073758;28;20225;-78
2022/03/26 01:44:34;;;;;;;51.50;20.67;;;;;;;-145.69;89.66;73376.81;5072815;28;20676;-77
2022/03/26 01:47:01;;;;;;;49.13;18.87;;;;;;;-145.69;88.02;73356.91;5072672;28;20206;-79
2022/03/26 01:49:28;;;;;;;47.33;18.93;;;;;;;-145.69;88.93;73374.84;5072153;28;20697;-78
2022/03/26 01:51:55;;;;;;;44.73;17.13;;;;;;;-145.69;89.11;73400.72;5074116;28;20554;-78
2022/03/26 01:54:22;;;;;;;50.80;19.37;;;;;;;-145.69;89.94;73428.59;5072245;28;20207;-77
2022/03/26 01:56:50;;;;;;;47.97;19.00;;;;;;;-145.69;91.07;73432.56;5073794;28;20543;-78
2022/03/26 01:59:19;;;;;;;53.97;18.97;;;;;;;-145.69;90.74;73420.63;5072606;28;20317;-78
2022/03/26 02:01:47;;;;;;;51.77;19.87;;;;;;;-145.69;89.46;73368.88;5072854;28;20199;-78
2022/03/26 02:04:14;;;;;;;57.53;25.37;;;;;;;-145.69;91.30;73382.81;5071864;28;21006;-78
2022/03/26 02:06:44;;;;;;;50.33;21.47;;;;;;;-145.69;92.47;73378.81;5073696;28;20203;-78
2022/03/26 02:09:13;;;;;;;50.97;20.43;;;;;;;-145.69;91.83;73364.88;5073835;28;20199;-78
2022/03/26 02:11:42;;;;;;;51.70;19.97;;;;;;;-145.69;91.86;73360.91;5072824;28;20657;-78
2022/03/26 02:14:10;;;;;;;51.03;19.43;;;;;;;-145.69;92.12;73388.78;5072367;28;20198;-78
2022/03/26 02:16:40;;;;;;;47.63;19.47;;;;;;;-145.69;92.73;73412.66;5071834;28;20307;-78
2022/03/26 02:19:10;;;;;;;54.40;20.47;;;;;;;-145.69;95.03;73418.63;5072039;28;20571;-78
2022/03/26 02:21:41;;;;;;;45.53;18.37;;;;;;;-145.69;95.16;73432.56;5073611;28;20204;-78
2022/03/26 02:24:09;;;;;;;53.77;19.50;;;;;;;-145.69;97.39;73424.59;5073259;28;20289;-78
2022/03/26 02:26:36;;;;;;;54.90;20.17;;;;;;;-145.69;95.01;73392.75;5073225;28;20276;-78
2022/03/26 02:29:08;;;;;;;60.60;19.63;;;;;;;-145.69;95.19;73398.72;5072834;28;20195;-78
2022/03/26 02:31:35;;;;;;;50.27;17.67;;;;;;;-145.69;95.90;73416.66;5071836;28;20230;-78
2022/03/26 02:34:01;;;;;;;46.37;17.90;;;;;;;-145.69;95.89;73444.50;5072017;28;20202;-77
2022/03/26 02:36:28;;;;;;;49.40;19.27;;;;;;;-145.69;97.32;73464.44;5072516;28;20230;-77
2022/03/26 02:38:57;;;;;;;47.17;19.37;;;;;;;-145.69;97.55;73476.38;5073367;28;20254;-78
2022/03/26 02:41:23;;;;;;;46.13;18.53;;;;;;;-145.69;97.38;73482.34;5072888;28;20654;-78
2022/03/26 02:43:51;;;;;;;47.83;19.83;;;;;;;-145.69;98.80;73476.38;5073159;28;20685;-77
2022/03/26 02:46:18;;;;;;;49.63;18.67;;;;;;;-145.69;96.72;73440.53;5072738;28;20684;-77
2022/03/26 02:48:50;;;;;;;46.17;19.20;;;;;;;-145.69;96.98;73476.38;5072707;28;20198;-78
2022/03/26 02:51:16;;;;;;;48.77;20.13;;;;;;;-145.69;99.87;73496.28;5072534;28;20210;-77
2022/03/26 02:53:43;;;;;;;50.10;19.83;;;;;;;-145.69;98.58;73474.38;5072052;28;20198;-78
2022/03/26 02:56:11;;;;;;;51.50;18.43;;;;;;;-145.69;98.42;73500.25;5072915;28;20623;-77
2022/03/26 02:58:37;;;;;;;56.53;20.23;;;;;;;-145.69;97.44;73460.44;5072778;28;20288;-77
2022/03/26 03:01:04;;;;;;;53.80;20.70;;;;;;;-145.69;99.44;73446.50;5072166;28;20198;-77
2022/03/26 03:03:30;;;;;;;51.53;20.70;;;;;;;-145.69;98.92;73464.44;5073151;28;20203;-77
2022/03/26 03:05:58;;;;;;;51.33;19.33;;;;;;;-145.69;99.29;73482.34;5073097;28;20733;-77
2022/03/26 03:08:25;;;;;;;53.93;20.63;;;;;;;-145.69;98.93;73492.28;5072247;28;20205;-78
2022/03/26 03:10:53;;;;;;;47.40;19.23;;;;;;;-145.69;100.00;73520.16;5072156;28;20285;-77
2022/03/26 03:13:22;;;;;;;48.33;19.60;;;;;;;-145.69;100.00;73526.16;5071597;28;20311;-78
2022/03/26 03:15:48;;;;;;;44.17;18.00;;;;;;;-145.69;100.00;73554.00;5071875;28;20697;-77
2022/03/26 03:18:15;;;;;;;52.97;18.57;;;;;;;-145.69;100.00;73560.00;5071795;28;20227;-78
2022/03/26 03:20:41;;;;;;;51.37;19.57;;;;;;;-145.69;100.00;73556.00;5072394;28;20206;-77
2022/03/26 03:23:08;;;;;;;49.63;19.27;;;;;;;-145.69;100.00;73573.94;5070939;28;20203;-77
2022/03/26 03:25:34;;;;;;;49.20;19.63;;;;;;;-145.69;100.00;73575.91;5071407;28;20685;-77
2022/03/26 03:28:01;;;;;;;60.90;22.00;;;;;;;-145.69;100.00;73569.94;5072519;28;20207;-77
2022/03/26 03:30:30;;;;;;;57.97;20.73;;;;;;;-145.69;100.00;73558.00;5072973;28;20199;-77
2022/03/26 03:32:59;;;;;;;54.70;20.73;;;;;;;-145.69;100.00;73563.97;5073004;28;20205;-77
2022/03/26 03:35:25;;;;;;;52.93;19.47;;;;;;;-145.69;100.00;73567.94;5072070;28;20209;-78
2022/03/26 03:37:52;;;;;;;56.33;20.83;;;;;;;-145.69;100.00;73563.97;5072353;28;20206;-77
2022/03/26 03:40:19;;;;;;;52.57;18.80;;;;;;;-145.69;100.00;73577.91;5070593;28;20195;-77
2022/03/26 03:42:49;;;;;;;61.00;20.23;;;;;;;-145.69;100.00;73554.00;5072298;28;20199;-77
2022/03/26 03:45:16;;;;;;;55.67;20.03;;;;;;;-145.69;100.00;73526.16;5070881;28;20248;-77
2022/03/26 03:47:43;;;;;;;46.33;19.57;;;;;;;-145.69;100.00;73536.09;5070495;28;20199;-77
2022/03/26 03:50:11;;;;;;;55.57;20.33;;;;;;;-145.69;100.00;73558.00;5070837;28;20669;-78
2022/03/26 03:52:38;;;;;;;63.93;21.27;;;;;;;-145.69;100.00;73560.00;5071464;28;20199;-77
2022/03/26 03:55:06;;;;;;;64.30;22.40;;;;;;;-145.69;100.00;73548.03;5074403;28;20195;-77
2022/03/26 03:57:32;;;;;;;56.10;20.60;;;;;;;-145.69;100.00;73552.03;5075401;28;20725;-77
2022/03/26 03:59:59;;;;;;;60.03;21.30;;;;;;;-145.69;100.00;73530.13;5074518;28;20230;-77
2022/03/26 04:02:29;;;;;;;57.77;22.07;;;;;;;-145.69;100.00;73526.16;5074485;28;20705;-77
2022/03/26 04:04:57;;;;;;;51.03;20.07;;;;;;;-145.69;100.00;73532.13;5074390;28;20226;-77
2022/03/26 04:07:23;;;;;;;48.90;19.17;;;;;;;-145.69;100.00;73556.00;5074303;28;20295;-78
2022/03/26 04:09:50;;;;;;;51.43;20.37;;;;;;;-145.69;100.00;73556.00;5075371;28;20252;-78
2022/03/26 04:12:16;;;;;;;59.73;20.43;;;;;;;-145.69;100.00;73563.97;5075779;28;20244;-77
2022/03/26 04:14:43;;;;;;;54.53;20.93;;;;;;;-145.69;100.00;73577.91;5074761;28;20704;-78
2022/03/26 04:17:11;;;;;;;61.70;21.83;;;;;;;-145.69;100.00;73563.97;5075752;28;20689;-77
2022/03/26 04:19:38;;;;;;;58.50;21.43;;;;;;;-145.69;100.00;73558.00;5073619;28;20223;-77
2022/03/26 04:22:07;;;;;;;58.67;19.43;;;;;;;-145.69;100.00;73558.00;5073958;28;20202;-78
2022/03/26 04:24:36;;;;;;;59.20;21.53;;;;;;;-145.69;100.00;73552.03;5074031;28;20215;-78
2022/03/26 04:27:03;;;;;;;55.90;20.97;;;;;;;-145.69;100.00;73558.00;5075350;28;20596;-78
2022/03/26 04:29:32;;;;;;;55.63;21.60;;;;;;;-145.69;100.00;73544.06;5075613;28;20227;-77
2022/03/26 04:31:58;;;;;;;55.67;21.03;;;;;;;-145.69;100.00;73542.06;5075692;28;20199;-77
2022/03/26 04:34:25;;;;;;;56.17;20.90;;;;;;;-145.69;100.00;73544.06;5075179;28;20199;-77
2022/03/26 04:36:52;;;;;;;57.17;21.63;;;;;;;-145.69;100.00;73532.13;5073505;28;20232;-77
2022/03/26 04:39:21;;;;;;;60.90;22.53;;;;;;;-145.69;100.00;73516.19;5075456;28;20222;-78
2022/03/26 04:41:47;;;;;;;57.10;21.30;;;;;;;-145.69;100.00;73484.34;5071871;28;20195;-78
2022/03/26 04:44:14;;;;;;;56.73;21.83;;;;;;;-145.69;98.33;73396.72;5074117;28;20208;-78
2022/03/26 04:46:42;;;;;;;63.60;22.33;;;;;;;-145.69;95.75;73337.00;5073123;28;20685;-78
2022/03/26 04:49:12;;;;;;;63.07;22.77;;;;;;;-145.69;88.66;73241.44;5074348;28;20559;-77
2022/03/26 04:51:38;;;;;;;54.63;20.73;;;;;;;-145.69;87.82;73229.50;5072714;28;20658;-80
2022/03/26 04:54:05;;;;;;;61.23;20.60;;;;;;;-145.69;86.38;73195.66;5073882;28;20191;-77
2022/03/26 04:56:33;;;;;;;58.60;20.97;;;;;;;-145.69;83.34;73161.81;5074643;28;20198;-78
2022/03/26 04:59:00;;;;;;;52.00;19.27;;;;;;;-145.69;81.50;73124.00;5074689;28;20230;-77
2022/03/26 05:01:27;;;;;;;49.60;20.10;;;;;;;-145.69;79.37;73084.19;5074382;28;20202;-77
2022/03/26 05:03:54;;;;;;;52.83;19.03;;;;;;;-145.69;78.16;73068.25;5074686;28;20211;-77
2022/03/26 05:06:20;;;;;;;58.63;19.93;;;;;;;-145.69;78.26;73084.19;5074863;28;20203;-78
2022/03/26 05:08:48;;;;;;;51.63;18.80;;;;;;;-145.69;78.91;73102.09;5074632;28;20662;-78
2022/03/26 05:11:15;;;;;;;57.10;18.63;;;;;;;-145.69;78.43;73106.09;5074629;28;20202;-77
2022/03/26 05:13:43;;;;;;;50.83;18.73;;;;;;;-145.69;78.29;73112.06;5074411;28;20215;-77
2022/03/26 05:16:10;;;;;;;48.60;18.63;;;;;;;-145.69;78.08;73098.13;5074696;28;20241;-77
2022/03/26 05:18:36;;;;;;;55.87;20.03;;;;;;;-145.69;77.99;73106.09;5074286;28;20284;-77
2022/03/26 05:21:03;;;;;;;57.57;20.10;;;;;;;-145.69;78.47;73110.06;5074650;28;20203;-78
2022/03/26 05:23:29;;;;;;;49.63;19.17;;;;;;;-145.69;77.05;73078.22;5074103;28;20191;-77
2022/03/26 05:25:59;;;;;;;53.47;19.23;;;;;;;-145.69;77.12;73064.28;5074697;28;20705;-77
2022/03/26 05:28:26;;;;;;;53.23;19.30;;;;;;;-145.69;75.27;73038.41;5073474;28;20202;-77
2022/03/26 05:30:54;;;;;;;53.23;19.63;;;;;;;-145.69;74.40;73020.47;5073787;28;20600;-77
2022/03/26 05:33:21;;;;;;;54.57;20.20;;;;;;;-145.69;74.41;73018.50;5073994;28;20224;-77
2022/03/26 05:35:48;;;;;;;55.80;19.83;;;;;;;-145.69;75.07;73022.47;5074467;28;20199;-78
2022/03/26 05:38:17;;;;;;;48.63;19.03;;;;;;;-145.69;75.21;73028.44;5073114;28;20612;-78
2022/03/26 05:40:43;;;;;;;46.23;18.27;;;;;;;-145.69;75.05;73038.41;5073552;28;20219;-78
2022/03/26 05:43:13;;;;;;;50.00;19.07;;;;;;;-145.69;74.80;73036.41;5073939;28;20198;-77
2022/03/26 05:45:39;;;;;;;52.93;19.57;;;;;;;-145.69;73.43;73002.56;5074423;28;20198;-78
2022/03/26 05:48:10;;;;;;;55.37;19.13;;;;;;;-145.69;74.02;73024.47;5074882;28;20625;-78
2022/03/26 05:50:37;;;;;;;48.10;18.40;;;;;;;-145.69;73.52;73018.50;5074359;28;20289;-78
2022/03/26 05:53:06;;;;;;;53.60;19.80;;;;;;;-145.69;72.12;72994.59;5073950;28;20191;-78
2022/03/26 05:55:33;;;;;;;49.83;19.13;;;;;;;-145.69;71.80;72990.63;5073343;28;20273;-78
2022/03/26 05:57:59;;;;;;;50.13;18.27;;;;;;;-145.69;71.97;72996.59;5072967;28;20207;-78
2022/03/26 06:00:30;;;;;;;50.13;19.10;;;;;;;-145.69;72.46;73000.56;5073369;28;20233;-78
2022/03/26 06:03:00;;;;;;;53.53;19.03;;;;;;;-145.69;72.80;73002.56;5073747;28;20226;-77
2022/03/26 06:05:28;;;;;;;47.27;18.60;;;;;;;-145.69;72.29;72990.63;5073809;28;20194;-78
2022/03/26 06:07:54;;;;;;;56.40;20.37;;;;;;;-145.69;71.65;72984.66;5073225;28;20201;-78
2022/03/26 06:10:23;;;;;;;47.57;19.20;;;;;;;-145.69;71.37;72974.69;5073060;28;20199;-78
2022/03/26 06:12:50;;;;;;;52.07;18.57;;;;;;;-145.69;70.94;72974.69;5073531;28;20206;-78
2022/03/26 06:15:16;;;;;;;61.17;19.53;;;;;;;-145.69;70.65;72964.75;5073190;28;20231;-78
2022/03/26 06:17:45;;;;;;;50.73;19.20;;;;;;;-145.69;70.53;72970.72;5072810;28;20201;-78
2022/03/26 06:20:12;;;;;;;50.83;18.40;;;;;;;-145.69;70.74;72962.75;5072650;28;20312;-78
2022/03/26 06:22:40;;;;;;;57.63;19.73;;;;;;;-145.69;70.91;72954.78;5072946;28;20206;-79
2022/03/26 06:25:07;;;;;;;54.27;19.97;;;;;;;-145.69;70.64;72938.88;5071910;28;20264;-78
2022/03/26 06:27:34;;;;;;;51.70;20.53;;;;;;;-145.69;69.81;72930.91;5072327;28;20205;-79
2022/03/26 06:30:00;;;;;;;55.87;20.03;;;;;;;-145.69;68.52;72907.00;5072509;28;20222;-77
2022/03/26 06:32:28;;;;;;;53.87;19.60;;;;;;;-145.69;68.27;72897.06;5072017;28;20199;-77
2022/03/26 06:34:57;;;;;;;54.67;21.60;;;;;;;-145.69;70.06;72895.06;5073321;28;20665;-78
2022/03/26 06:37:24;;;;;;;47.70;18.43;;;;;;;-145.69;68.59;72889.09;5072793;28;20289;-77
2022/03/26 06:39:52;;;;;;;49.63;19.30;;;;;;;-145.69;66.26;72863.22;5072239;28;20226;-78
2022/03/26 06:42:19;;;;;;;47.97;19.20;;;;;;;-145.69;67.44;72859.25;5072516;28;20693;-78
2022/03/26 06:44:46;;;;;;;57.43;20.27;;;;;;;-145.69;66.44;72847.28;5071658;28;20198;-77
2022/03/26 06:47:12;;;;;;;48.40;18.97;;;;;;;-145.69;67.15;72831.38;5072903;28;20264;-78
2022/03/26 06:49:39;;;;;;;51.23;19.63;;;;;;;-145.69;67.52;72817.44;5072869;28;20207;-78
2022/03/26 06:52:06;;;;;;;54.27;19.90;;;;;;;-145.69;65.64;72807.47;5073005;28;20608;-78
2022/03/26 06:54:33;;;;;;;52.57;19.40;;;;;;;-145.69;65.24;72791.56;5072441;28;20301;-77
2022/03/26 06:57:04;;;;;;;54.47;19.87;;;;;;;-145.69;64.83;72769.66;5070990;28;20260;-78
2022/03/26 06:59:31;;;;;;;49.53;19.57;;;;;;;-145.69;62.71;72739.81;5072488;28;20222;-77
2022/03/26 07:01:57;;;;;;;53.50;20.80;;;;;;;-145.69;61.60;72729.84;5072079;28;20699;-78
2022/03/26 07:04:24;;;;;;;54.60;20.07;;;;;;;-145.69;62.53;72719.91;5072465;28;20202;-77
2022/03/26 07:06:53;;;;;;;52.73;20.07;;;;;;;-145.69;62.73;72692.03;5072327;28;20210;-77
2022/03/26 07:09:23;;;;;;;53.40;19.87;;;;;;;-145.69;60.65;72680.09;5072532;28;20245;-77
2022/03/26 07:11:52;;;;;;;57.50;21.90;;;;;;;-145.69;60.49;72658.19;5072323;28;20203;-77
2022/03/26 07:14:20;;;;;;;58.37;19.90;;;;;;;-145.69;59.17;72630.31;5072904;28;20198;-78
2022/03/26 07:16:49;;;;;;;54.43;20.73;;;;;;;-145.69;58.16;72622.38;5071704;28;20195;-78
2022/03/26 07:19:15;;;;;;;52.43;20.13;;;;;;;-145.69;58.10;72600.47;5072111;28;20233;-78
2022/03/26 07:21:41;;;;;;;53.07;19.50;;;;;;;-145.69;57.88;72580.56;5073072;28;20256;-78
2022/03/26 07:24:08;;;;;;;62.10;21.23;;;;;;;-145.69;56.55;72576.59;5071684;28;20237;-78
2022/03/26 07:26:35;;;;;;;64.97;20.93;;;;;;;-145.69;56.82;72560.66;5072157;28;20285;-79
2022/03/26 07:29:02;;;;;;;58.33;21.00;;;;;;;-145.69;55.17;72552.69;5075381;28;20732;-77
2022/03/26 07:31:30;;;;;;;55.77;20.40;;;;;;;-145.69;54.49;72538.78;5075965;28;20347;-77
2022/03/26 07:33:57;;;;;;;49.83;19.97;;;;;;;-145.69;54.90;72528.81;5076229;28;20207;-78
2022/03/26 07:36:23;;;;;;;49.47;19.87;;;;;;;-145.69;56.21;72508.91;5075354;28;20202;-77
2022/03/26 07:38:50;;;;;;;48.77;20.17;;;;;;;-145.69;55.37;72512.91;5075521;28;20256;-77
2022/03/26 07:41:17;;;;;;;63.27;21.23;;;;;;;-145.69;58.15;72538.78;5074707;28;20650;-78
2022/03/26 07:43:44;;;;;;;57.33;21.23;;;;;;;-145.69;60.26;72556.69;5074704;28;20225;-78
2022/03/26 07:46:10;;;;;;;51.13;21.43;;;;;;;-145.69;62.24;72556.69;5075317;28;20539;-78
2022/03/26 07:48:38;;;;;;;53.87;22.43;;;;;;;-145.69;65.76;72544.75;5075746;28;20633;-78
2022/03/26 07:51:04;;;;;;;52.90;21.13;;;;;;;-145.69;62.37;72562.66;5076483;28;20214;-78
2022/03/26 07:53:31;;;;;;;53.07;22.03;;;;;;;-145.69;63.28;72560.66;5075253;28;20194;-78
2022/03/26 07:55:58;;;;;;;46.90;20.67;;;;;;;-145.69;63.19;72552.69;5074865;28;20202;-78
2022/03/26 07:58:24;;;;;;;53.88;24.35;;;;;;;-145.69;62.97;72546.72;5073364;28;20470;-78
2022/03/26 08:00:50;;;;;;;59.60;23.00;;;;;;;-145.69;65.44;72532.78;5074383;28;20750;-78
2022/03/26 08:03:17;;;;;;;53.97;22.17;;;;;;;-145.69;62.65;72536.78;5075142;28;20677;-78
2022/03/26 08:05:45;;;;;;;52.93;21.93;;;;;;;-145.69;65.50;72540.75;5075282;28;20213;-78
2022/03/26 08:08:11;;;;;;;53.97;22.13;;;;;;;-145.69;64.61;72536.78;5073976;28;20657;-78
2022/03/26 08:10:38;;;;;;;50.63;21.63;;;;;;;-145.69;64.25;72526.81;5074603;28;20203;-78
2022/03/26 08:13:05;;;;;;;49.13;21.33;;;;;;;-145.69;60.32;72512.91;5074026;28;20205;-78
2022/03/26 08:15:32;;;;;;;51.10;20.43;;;;;;;-145.69;57.99;72409.38;5075563;28;20593;-78
2022/03/26 08:18:02;;;;;;;45.90;20.60;;;;;;;-145.69;51.33;72341.72;5076021;28;20206;-78
2022/03/26 08:20:29;;;;;;;51.90;20.30;;;;;;;-145.69;48.32;72303.91;5075617;28;20238;-78
2022/03/26 08:22:57;;;;;;;53.70;20.67;;;;;;;-145.69;52.69;72256.13;5075679;28;20210;-78
2022/03/26 08:28:08;;;;;;;52.53;22.00;;;;;;;-145.69;50.79;72289.97;5051516;28;20207;-79
2022/03/26 08:30:34;;;;;;;52.67;22.07;;;;;;;-145.69;57.51;72361.63;5076038;28;20207;-78
2022/03/26 08:33:01;;;;;;;51.27;23.07;;;;;;;-145.69;58.36;72395.47;5075818;28;20205;-78
2022/03/26 08:35:28;;;;;;;53.83;21.87;;;;;;;-145.69;60.23;72465.13;5075430;28;20256;-79
2022/03/26 08:37:54;;;;;;;50.93;22.47;;;;;;;-145.69;61.44;72477.06;5075039;28;20198;-79
2022/03/26 08:40:22;;;;;;;50.30;22.60;;;;;;;-145.69;60.92;72451.19;5073830;28;20229;-79
2022/03/26 08:42:48;;;;;;;45.43;21.33;;;;;;;-145.69;60.99;72441.25;5074931;28;20598;-79
2022/03/26 08:45:15;;;;;;;53.53;22.63;;;;;;;-145.69;60.59;72445.22;5075158;28;20676;-79
2022/03/26 08:47:41;;;;;;;49.60;21.80;;;;;;;-145.69;65.65;72449.19;5075598;28;20210;-78
2022/03/26 08:50:09;;;;;;;50.20;22.23;;;;;;;-145.69;65.88;72393.47;5075457;28;20212;-78
2022/03/26 08:52:37;;;;;;;54.60;22.63;;;;;;;-145.69;58.81;72395.47;5075340;28;20198;-78
2022/03/26 08:55:04;;;;;;;53.30;21.77;;;;;;;-145.69;61.67;72401.44;5074530;28;20203;-77
2022/03/26 08:57:32;;;;;;;50.83;20.70;;;;;;;-145.69;59.02;72377.53;5074593;28;20546;-80
2022/03/26 08:59:58;;;;;;;54.20;20.33;;;;;;;-145.69;54.75;72309.88;5074417;28;20230;-79
2022/03/26 09:02:25;;;;;;;47.43;21.07;;;;;;;-145.69;57.30;72335.75;5075131;28;20198;-79
2022/03/26 09:04:52;;;;;;;44.53;20.10;;;;;;;-145.69;56.68;72365.59;5075030;28;20653;-79
2022/03/26 09:07:19;;;;;;;49.80;21.27;;;;;;;-145.69;57.46;72333.75;5075011;28;20198;-80
2022/03/26 09:09:46;;;;;;;46.17;20.70;;;;;;;-145.69;57.19;72272.06;5074123;28;20245;-80
2022/03/26 09:12:12;;;;;;;47.70;22.00;;;;;;;-145.69;58.28;72270.06;5073345;28;20213;-80
2022/03/26 09:14:40;;;;;;;46.40;20.77;;;;;;;-145.69;57.88;72254.16;5074256;28;20203;-80
2022/03/26 09:17:06;;;;;;;52.37;23.00;;;;;;;-145.69;53.24;72284.00;5074556;28;20672;-79
2022/03/26 09:19:33;;;;;;;52.80;22.83;;;;;;;-145.69;55.17;72278.03;5074214;28;20225;-80
2022/03/26 09:22:00;;;;;;;52.37;21.50;;;;;;;-145.69;49.88;72206.38;5074365;28;20226;-80
2022/03/26 09:24:26;;;;;;;45.77;17.60;;;;;;;-145.69;41.11;72154.63;5074206;28;20234;-81
2022/03/26 09:26:52;;;;;;;48.67;19.40;;;;;;;-145.69;42.50;72106.88;5073993;28;20199;-83
2022/03/26 09:29:19;;;;;;;43.97;20.73;;;;;;;-145.69;40.78;72053.13;5073440;28;20438;-82
2022/03/26 09:31:47;;;;;;;44.97;18.40;;;;;;;-145.69;39.59;72027.25;5074452;28;20207;-81
2022/03/26 09:34:14;;;;;;;41.80;19.93;;;;;;;-145.69;40.12;72031.25;5073623;28;20218;-82
2022/03/26 09:36:40;;;;;;;49.40;18.43;;;;;;;-145.69;40.06;72007.34;5074022;28;20195;-82
2022/03/26 09:39:07;;;;;;;51.03;19.23;;;;;;;-145.69;38.94;72047.16;5073954;28;20206;-81
2022/03/26 09:41:35;;;;;;;42.03;18.80;;;;;;;-145.69;41.31;72015.31;5073040;28;20758;-82
2022/03/26 09:44:03;;;;;;;46.40;18.60;;;;;;;-145.69;40.25;72007.34;5074048;28;20294;-82
2022/03/26 09:46:30;;;;;;;43.27;18.50;;;;;;;-145.69;39.85;71985.47;5064200;28;20207;-81
2022/03/26 09:48:57;;;;;;;47.40;19.67;;;;;;;-145.69;38.38;72007.34;5062821;28;20199;-80
2022/03/26 09:51:24;;;;;;;42.53;18.90;;;;;;;-145.69;37.40;71993.44;5064617;28;20205;-79
2022/03/26 09:53:53;;;;;;;45.23;18.47;;;;;;;-145.69;39.33;71967.56;5054324;28;20204;-79
2022/03/26 09:56:20;;;;;;;49.50;19.83;;;;;;;-145.69;39.42;71971.53;5053424;28;20207;-79
2022/03/26 09:58:47;;;;;;;46.40;19.13;;;;;;;-145.69;38.91;71967.56;5055944;28;20207;-78
2022/03/26 10:01:13;;;;;;;42.53;19.17;;;;;;;-145.69;38.76;71961.59;5073103;28;20242;-80
2022/03/26 10:03:41;;;;;;;43.60;18.97;;;;;;;-145.69;38.91;71941.69;5073300;28;20211;-78
2022/03/26 10:06:08;;;;;;;41.73;19.20;;;;;;;-145.69;37.35;71949.66;5073380;28;20223;-78
2022/03/26 10:08:38;;;;;;;44.97;20.07;;;;;;;-145.69;37.84;71943.69;5073689;28;20198;-80
2022/03/26 10:11:06;;;;;;;37.67;18.65;;;;;;;-145.69;40.03;71925.75;5071716;28;20205;-80
2022/03/26 10:13:35;;;;;;;42.20;19.30;;;;;;;-145.69;37.80;71931.72;5072790;28;20236;-80
2022/03/26 10:16:03;;;;;;;42.87;18.37;;;;;;;-145.69;35.98;71917.81;5073254;28;20647;-80
2022/03/26 10:18:36;;;;;;;46.15;19.02;;;;;;;-145.69;36.37;71917.81;5073199;28;20565;-81
2022/03/26 10:21:03;;;;;;;47.60;18.87;;;;;;;-145.69;37.88;71891.94;5072945;28;20299;-80
2022/03/26 10:23:32;;;;;;;45.67;18.17;;;;;;;-145.69;38.01;71868.06;5073162;28;20195;-80
2022/03/26 10:26:06;;;;;;;40.20;18.23;;;;;;;-145.69;36.45;71866.06;5071838;28;20214;-80
2022/03/26 10:28:34;;;;;;;36.30;16.50;;;;;;;-145.69;36.12;71868.06;5071801;28;20198;-80
2022/03/26 10:34:07;;;;;;;42.75;18.73;;;;;;;-145.69;34.85;71826.25;5051942;28;20230;-80
2022/03/26 10:36:35;;;;;;;40.35;17.60;;;;;;;-145.69;35.82;71834.22;5049434;28;20206;-77
2022/03/26 10:39:05;;;;;;;44.58;18.27;;;;;;;-145.69;36.34;71840.19;5051959;28;20206;-78
2022/03/26 10:41:33;;;;;;;45.58;19.10;;;;;;;-145.69;36.08;71828.25;5052562;28;20241;-77
2022/03/26 10:44:08;;;;;;;40.60;18.92;;;;;;;-145.69;35.08;71844.16;5052472;28;20291;-77
2022/03/26 10:46:43;;;;;;;38.28;16.77;;;;;;;-145.69;33.96;71836.22;5053134;28;20203;-77
2022/03/26 10:49:10;;;;;;;36.63;17.05;;;;;;;-145.69;34.67;71804.38;5052274;28;20210;-77
2022/03/26 10:51:37;;;;;;;43.28;19.40;;;;;;;-145.69;34.97;71806.34;5053009;28;20570;-77
2022/03/26 10:54:10;;;;;;;40.05;18.15;;;;;;;-145.69;35.54;71784.47;5053185;28;20290;-77
2022/03/26 10:56:38;;;;;;;40.08;16.95;;;;;;;-145.69;35.77;71778.50;5053132;28;20199;-77
2022/03/26 10:59:04;;;;;;;40.22;18.20;;;;;;;-145.69;33.94;71772.53;5059569;28;20294;-78
2022/03/26 11:01:31;;;;;;;40.20;18.27;;;;;;;-145.69;33.88;71786.47;5072630;28;20231;-77
2022/03/26 11:03:58;;;;;;;38.17;18.88;;;;;;;-145.69;34.65;71780.50;5072313;28;20194;-77
2022/03/26 11:06:26;;;;;;;37.10;18.65;;;;;;;-145.69;34.86;71794.41;5072735;28;20202;-77